Time;durP1;ratioP1;P1;durP2;ratioP2;P2;SDS_P1;SDS_P2;PMS_P1;PMS_P2;Temp;Humidity;BMP_temperature;BMP_pressure;BME280_temperature;BME280_humidity;BME280_pressure;Samples;Min_cycle;Max_cycle;Signal;HPM_P1;HPM_P2
2023/02/22 00:01:34;;;;;;;;;;;;;;;17.01;67.07;100632.00;7405379;19;1306;-40
2023/02/22 00:04:02;;;;;;;;;;;;;;;16.99;66.71;100633.94;7400678;19;2090;-40
2023/02/22 00:06:31;;;;;;;;;;;;;;;17.03;67.03;100646.06;7403918;19;1489;-39
2023/02/22 00:09:02;;;;;;;;;;;;;;;16.99;66.86;100641.09;7402060;19;1742;-40
2023/02/22 00:11:34;;;;;;;;;;;;;;;16.99;66.99;100649.97;7403021;19;2063;-40
2023/02/22 00:14:02;;;;;;;;;;;;;;;16.97;66.75;100641.25;7404654;19;1063;-40
2023/02/22 00:16:30;;;;;;;;;;;;;;;16.97;66.98;100651.06;7404563;19;1973;-40
2023/02/22 00:19:00;;;;;;;;;;;;;;;16.95;66.80;100648.53;7404633;19;1763;-40
2023/02/22 00:21:29;;;;;;;;;;;;;;;16.95;66.63;100647.66;7404110;19;1804;-40
2023/02/22 00:23:58;;;;;;;;;;;;;;;16.97;66.86;100651.91;7401882;19;1865;-40
2023/02/22 00:26:29;;;;;;;;;;;;;;;16.95;66.75;100643.19;7404117;19;2302;-40
2023/02/22 00:28:57;;;;;;;;;;;;;;;16.95;66.81;100653.88;7405236;19;1002;-40
2023/02/22 00:31:25;;;;;;;;;;;;;;;16.94;66.92;100660.16;7404184;19;2190;-40
2023/02/22 00:33:54;;;;;;;;;;;;;;;16.95;66.56;100655.66;7401614;19;2280;-40
2023/02/22 00:36:23;;;;;;;;;;;;;;;16.94;67.15;100659.31;7402077;19;1855;-40
2023/02/22 00:38:51;;;;;;;;;;;;;;;16.93;67.12;100645.13;7403077;19;1785;-40
2023/02/22 00:41:20;;;;;;;;;;;;;;;16.95;67.14;100642.31;7401040;19;1967;-40
2023/02/22 00:43:52;;;;;;;;;;;;;;;16.94;66.66;100654.81;7402523;19;1957;-40
2023/02/22 00:46:20;;;;;;;;;;;;;;;16.94;66.65;100641.47;7401721;19;2250;-40
2023/02/22 00:48:48;;;;;;;;;;;;;;;16.92;66.88;100632.75;7403099;19;1947;-40
2023/02/22 00:51:17;;;;;;;;;;;;;;;16.89;67.06;100643.66;7402012;19;1973;-40
2023/02/22 00:53:45;;;;;;;;;;;;;;;16.90;67.09;100653.38;7402980;19;1590;-40
2023/02/22 00:56:13;;;;;;;;;;;;;;;16.88;66.75;100637.47;7403167;19;2020;-40
2023/02/22 00:58:43;;;;;;;;;;;;;;;16.89;67.00;100641.84;7403692;19;2089;-40
2023/02/22 01:01:15;;;;;;;;;;;;;;;16.89;66.72;100627.63;7403413;19;998;-40
2023/02/22 01:03:44;;;;;;;;;;;;;;;16.86;67.11;100634.09;7401917;19;1916;-40
2023/02/22 01:06:14;;;;;;;;;;;;;;;16.84;66.94;100633.34;7403586;19;1796;-40
2023/02/22 01:08:45;;;;;;;;;;;;;;;16.85;67.05;100647.56;7401579;19;1978;-40
2023/02/22 01:11:14;;;;;;;;;;;;;;;16.88;67.03;100639.31;7400751;19;2070;-40
2023/02/22 01:13:44;;;;;;;;;;;;;;;16.86;66.77;100650.09;7402849;19;1749;-40
2023/02/22 01:16:15;;;;;;;;;;;;;;;16.84;66.84;100638.69;7401851;19;2001;-40
2023/02/22 01:18:43;;;;;;;;;;;;;;;16.84;66.94;100645.88;7403501;19;1987;-40
2023/02/22 01:21:12;;;;;;;;;;;;;;;16.84;66.91;100656.56;7402438;19;2177;-40
2023/02/22 01:23:40;;;;;;;;;;;;;;;16.83;67.00;100653.03;7401109;19;1838;-40
2023/02/22 01:26:08;;;;;;;;;;;;;;;16.83;67.19;100645.03;7402991;19;1956;-40
2023/02/22 01:28:37;;;;;;;;;;;;;;;16.83;67.03;100642.34;7402340;19;2033;-40
2023/02/22 01:31:05;;;;;;;;;;;;;;;16.84;67.09;100651.22;7401419;19;2144;-40
2023/02/22 01:33:36;;;;;;;;;;;;;;;16.85;67.03;100653.75;7401577;19;2259;-40
2023/02/22 01:36:10;;;;;;;;;;;;;;;16.80;67.14;100628.38;7400291;19;2059;-40
2023/02/22 01:38:38;;;;;;;;;;;;;;;16.82;66.83;100632.63;7401581;19;2126;-40
2023/02/22 01:41:07;;;;;;;;;;;;;;;16.81;66.79;100630.03;7400824;19;2248;-40
2023/02/22 01:43:36;;;;;;;;;;;;;;;16.82;67.08;100626.44;7399667;19;2081;-40
2023/02/22 01:46:05;;;;;;;;;;;;;;;16.79;67.05;100630.19;7400796;19;1752;-40
2023/02/22 01:48:41;;;;;;;;;;;;;;;16.79;67.06;100621.31;7401646;19;2023;-40
2023/02/22 01:51:12;;;;;;;;;;;;;;;16.76;66.78;100621.56;7399955;19;1756;-40
2023/02/22 01:53:44;;;;;;;;;;;;;;;16.77;67.21;100625.94;7397172;19;1774;-40
2023/02/22 01:56:13;;;;;;;;;;;;;;;16.76;67.01;100641.13;7401540;19;1857;-40
2023/02/22 01:58:44;;;;;;;;;;;;;;;16.78;67.15;100638.31;7402064;19;1020;-40
2023/02/22 02:01:13;;;;;;;;;;;;;;;16.75;66.81;100646.56;7400705;19;1961;-40
2023/02/22 02:03:44;;;;;;;;;;;;;;;16.77;66.70;100641.94;7399950;19;2265;-40
2023/02/22 02:06:14;;;;;;;;;;;;;;;16.77;66.94;100645.50;7399792;19;1784;-40
2023/02/22 02:08:50;;;;;;;;;;;;;;;16.74;67.11;100652.91;7399249;19;1665;-40
2023/02/22 02:11:23;;;;;;;;;;;;;;;16.76;66.69;100649.13;7399653;19;1899;-40
2023/02/22 02:13:53;;;;;;;;;;;;;;;16.74;66.83;100636.88;7400815;19;1778;-40
2023/02/22 02:16:22;;;;;;;;;;;;;;;16.72;66.91;100637.00;7399828;19;1923;-40
2023/02/22 02:18:56;;;;;;;;;;;;;;;16.72;67.11;100646.84;7401531;19;1762;-40
2023/02/22 02:21:40;;;;;;;;;;;;;;;16.75;67.12;100638.56;7401275;19;1846;-40
2023/02/22 02:24:23;;;;;;;;;;;;;;;16.72;67.33;100636.16;7399836;19;1971;-40
2023/02/22 02:27:08;;;;;;;;;;;;;;;16.72;66.98;100646.84;7398230;19;1812;-40
2023/02/22 02:29:50;;;;;;;;;;;;;;;16.72;66.88;100641.50;7400881;19;1677;-40
2023/02/22 02:32:29;;;;;;;;;;;;;;;16.69;67.30;100647.91;7399592;19;1738;-40
2023/02/22 02:35:00;;;;;;;;;;;;;;;16.69;67.36;100631.88;7400316;19;1837;-40
2023/02/22 02:37:34;;;;;;;;;;;;;;;16.70;66.86;100630.94;7400601;19;1759;-40
2023/02/22 02:40:10;;;;;;;;;;;;;;;16.69;67.32;100651.44;7400110;19;1843;-40
2023/02/22 02:42:42;;;;;;;;;;;;;;;16.68;67.13;100641.72;7400226;19;2165;-39
2023/02/22 02:45:13;;;;;;;;;;;;;;;16.69;67.16;100640.78;7397650;19;2180;-40
2023/02/22 02:47:46;;;;;;;;;;;;;;;16.75;66.99;100654.59;7399489;19;1973;-40
2023/02/22 02:50:18;;;;;;;;;;;;;;;17.03;66.10;100642.53;7399520;19;2242;-40
2023/02/22 02:52:48;;;;;;;;;;;;;;;18.02;63.39;100648.56;7400346;19;2036;-40
2023/02/22 02:55:18;;;;;;;;;;;;;;;18.62;61.92;100636.16;7400351;19;2043;-40
2023/02/22 02:57:46;;;;;;;;;;;;;;;19.37;59.92;100635.72;7400115;19;1474;-40
2023/02/22 03:00:26;;;;;;;;;;;;;;;19.74;58.75;100641.25;7398754;19;1851;-40
2023/02/22 03:03:05;;;;;;;;;;;;;;;19.58;59.02;100639.13;7399598;19;1896;-40
2023/02/22 03:05:45;;;;;;;;;;;;;;;19.45;59.48;100639.38;7407006;19;1870;-40
2023/02/22 03:08:18;;;;;;;;;;;;;;;19.52;59.76;100639.69;7407737;19;1743;-40
2023/02/22 03:10:52;;;;;;;;;;;;;;;19.52;59.45;100646.88;7405346;19;1122;-40
2023/02/22 03:13:27;;;;;;;;;;;;;;;19.45;60.17;100655.47;7405125;19;2129;-40
2023/02/22 03:15:57;;;;;;;;;;;;;;;19.53;59.69;100648.56;7404909;19;1958;-40
2023/02/22 03:18:31;;;;;;;;;;;;;;;19.63;59.29;100657.47;7406001;19;1616;-40
2023/02/22 03:21:02;;;;;;;;;;;;;;;19.52;60.36;100661.16;7405901;19;1582;-40
2023/02/22 03:23:34;;;;;;;;;;;;;;;19.65;60.15;100663.53;7405574;19;1866;-40
2023/02/22 03:26:05;;;;;;;;;;;;;;;19.94;59.47;100668.06;7405894;19;1800;-40
2023/02/22 03:28:34;;;;;;;;;;;;;;;20.10;58.71;100654.88;7405800;19;2189;-40
2023/02/22 03:31:04;;;;;;;;;;;;;;;20.14;58.91;100655.44;7406652;19;2035;-39
2023/02/22 03:33:42;;;;;;;;;;;;;;;20.18;58.45;100667.56;7405164;19;1809;-40
2023/02/22 03:36:14;;;;;;;;;;;;;;;20.14;58.80;100656.28;7404044;19;1863;-40
2023/02/22 03:38:44;;;;;;;;;;;;;;;20.21;58.35;100675.31;7405909;19;1445;-40
2023/02/22 03:41:14;;;;;;;;;;;;;;;20.27;58.26;100680.97;7405061;19;1788;-40
2023/02/22 03:43:44;;;;;;;;;;;;;;;20.24;58.55;100673.19;7405019;19;1861;-40
2023/02/22 03:46:15;;;;;;;;;;;;;;;20.30;58.07;100677.16;7405932;19;2037;-40
2023/02/22 03:48:49;;;;;;;;;;;;;;;20.21;58.49;100669.97;7405324;19;1822;-40
2023/02/22 03:51:18;;;;;;;;;;;;;;;20.23;58.56;100676.03;7404915;19;1769;-40
2023/02/22 03:53:46;;;;;;;;;;;;;;;20.22;58.53;100677.88;7404675;19;2089;-40
2023/02/22 03:56:19;;;;;;;;;;;;;;;20.27;58.44;100670.25;7403632;19;1857;-40
2023/02/22 03:58:49;;;;;;;;;;;;;;;20.31;58.24;100677.97;7405652;19;2095;-40
2023/02/22 04:01:18;;;;;;;;;;;;;;;19.82;59.32;100676.25;7404604;19;2213;-40
2023/02/22 04:03:49;;;;;;;;;;;;;;;19.19;61.18;100686.53;7404377;19;2145;-40
2023/02/22 04:06:17;;;;;;;;;;;;;;;18.85;62.32;100695.75;7405121;19;1730;-40
2023/02/22 04:08:46;;;;;;;;;;;;;;;18.50;62.83;100685.41;7402887;19;2050;-39
2023/02/22 04:11:14;;;;;;;;;;;;;;;18.42;63.48;100693.28;7403463;19;2044;-40
2023/02/22 04:13:43;;;;;;;;;;;;;;;18.33;63.93;100680.72;7405326;19;1774;-40
2023/02/22 04:16:11;;;;;;;;;;;;;;;18.26;63.75;100699.97;7403268;19;1749;-40
2023/02/22 04:18:39;;;;;;;;;;;;;;;18.22;63.98;100678.94;7404553;19;2068;-40
2023/02/22 04:21:10;;;;;;;;;;;;;;;18.28;63.76;100699.81;7404238;19;2029;-40
2023/02/22 04:23:38;;;;;;;;;;;;;;;18.71;62.39;100692.56;7404008;19;1944;-40
2023/02/22 04:26:08;;;;;;;;;;;;;;;19.06;61.31;100679.59;7404101;19;1955;-40
2023/02/22 04:28:38;;;;;;;;;;;;;;;19.50;60.12;100689.94;7404288;19;2173;-40
2023/02/22 04:31:07;;;;;;;;;;;;;;;19.07;61.35;100681.28;7402880;19;1946;-40
2023/02/22 04:33:35;;;;;;;;;;;;;;;18.64;62.22;100686.88;7402725;19;1910;-39
2023/02/22 04:36:03;;;;;;;;;;;;;;;18.35;63.39;100692.97;7401106;19;1929;-39
2023/02/22 04:38:34;;;;;;;;;;;;;;;18.63;62.37;100695.91;7401429;19;2045;-40
2023/02/22 04:41:02;;;;;;;;;;;;;;;19.31;60.88;100689.94;7403831;19;1039;-39
2023/02/22 04:43:32;;;;;;;;;;;;;;;19.44;60.35;100686.00;7402956;19;1695;-40
2023/02/22 04:46:01;;;;;;;;;;;;;;;19.41;60.57;100696.97;7403235;19;1749;-40
2023/02/22 04:48:29;;;;;;;;;;;;;;;18.93;61.56;100680.81;7403154;19;2024;-40
2023/02/22 04:50:58;;;;;;;;;;;;;;;18.56;62.75;100690.28;7403992;19;2035;-40
2023/02/22 04:53:26;;;;;;;;;;;;;;;18.36;63.74;100693.81;7403566;19;1925;-40
2023/02/22 04:55:57;;;;;;;;;;;;;;;18.89;62.06;100701.69;7403535;19;2144;-40
2023/02/22 04:58:25;;;;;;;;;;;;;;;19.22;60.79;100691.63;7403452;19;2241;-40
2023/02/22 05:00:54;;;;;;;;;;;;;;;19.55;60.42;100681.47;7402746;19;1942;-40
2023/02/22 05:03:22;;;;;;;;;;;;;;;19.40;60.23;100689.09;7402449;19;1918;-40
2023/02/22 05:05:50;;;;;;;;;;;;;;;18.87;61.95;100695.63;7400114;19;1852;-40
2023/02/22 05:08:20;;;;;;;;;;;;;;;18.53;62.61;100700.38;7402329;19;1809;-40
2023/02/22 05:10:48;;;;;;;;;;;;;;;18.34;63.63;100695.78;7402057;19;1624;-40
2023/02/22 05:13:19;;;;;;;;;;;;;;;18.99;61.75;100696.34;7292536;19;13203;-40
2023/02/22 05:15:47;;;;;;;;;;;;;;;19.26;60.97;100703.75;7401136;19;2075;-40
2023/02/22 05:18:15;;;;;;;;;;;;;;;19.39;60.53;100698.94;7402406;19;2221;-40
2023/02/22 05:20:45;;;;;;;;;;;;;;;19.59;60.39;100715.06;7402594;19;2233;-40
2023/02/22 05:23:13;;;;;;;;;;;;;;;19.45;58.91;100709.13;7401466;19;2010;-40
2023/02/22 05:25:42;;;;;;;;;;;;;;;19.45;59.05;100700.22;7399847;19;1846;-40
2023/02/22 05:28:13;;;;;;;;;;;;;;;19.48;58.77;100721.41;7401625;19;1932;-40
2023/02/22 05:30:44;;;;;;;;;;;;;;;19.50;58.30;100713.22;7401901;19;1711;-40
2023/02/22 05:33:12;;;;;;;;;;;;;;;19.53;58.43;100729.88;7401576;19;1851;-40
2023/02/22 05:35:40;;;;;;;;;;;;;;;19.55;58.64;100713.66;7401288;19;1866;-40
2023/02/22 05:38:09;;;;;;;;;;;;;;;19.61;58.49;100721.97;7402973;19;1034;-39
2023/02/22 05:40:38;;;;;;;;;;;;;;;19.21;59.34;100733.63;7399881;19;1957;-40
2023/02/22 05:43:06;;;;;;;;;;;;;;;18.80;60.51;100726.59;7399697;19;2033;-40
2023/02/22 05:45:35;;;;;;;;;;;;;;;18.47;59.31;100733.91;7398653;19;2202;-40
2023/02/22 05:48:06;;;;;;;;;;;;;;;18.25;57.65;100741.09;7395106;19;2148;-40
2023/02/22 05:50:34;;;;;;;;;;;;;;;18.17;59.81;100735.56;7397443;19;2162;-39
2023/02/22 05:53:04;;;;;;;;;;;;;;;18.12;60.04;100735.09;7399776;19;1923;-40
2023/02/22 05:55:32;;;;;;;;;;;;;;;18.17;60.51;100738.22;7399123;19;1838;-39
2023/02/22 05:58:04;;;;;;;;;;;;;;;18.13;60.43;100738.63;7400381;19;2093;-39
2023/02/22 06:00:32;;;;;;;;;;;;;;;18.12;60.71;100751.16;7398528;19;1796;-40
2023/02/22 06:03:01;;;;;;;;;;;;;;;18.00;60.65;100736.13;7398369;19;1711;-40
2023/02/22 06:05:33;;;;;;;;;;;;;;;18.11;60.73;100744.09;7400172;19;1853;-40
2023/02/22 06:08:01;;;;;;;;;;;;;;;18.15;60.65;100745.53;7390756;19;1666;-46
2023/02/22 06:10:30;;;;;;;;;;;;;;;18.15;60.37;100761.59;7398234;19;2227;-46
2023/02/22 06:13:00;;;;;;;;;;;;;;;18.19;60.62;100751.50;7399148;19;1825;-46
2023/02/22 06:15:35;;;;;;;;;;;;;;;18.19;60.69;100748.81;7399370;19;1672;-46
2023/02/22 06:18:04;;;;;;;;;;;;;;;18.18;60.71;100772.03;7399477;19;1894;-46
2023/02/22 06:20:35;;;;;;;;;;;;;;;18.15;61.14;100761.59;7397974;19;2141;-47
2023/02/22 06:23:03;;;;;;;;;;;;;;;18.16;61.23;100765.97;7399732;19;1655;-46
2023/02/22 06:25:33;;;;;;;;;;;;;;;18.16;61.20;100768.63;7398259;19;1855;-45
2023/02/22 06:28:04;;;;;;;;;;;;;;;18.18;61.04;100772.03;7397582;19;1763;-47
2023/02/22 06:30:32;;;;;;;;;;;;;;;18.19;61.27;100778.25;7398199;19;1826;-46
2023/02/22 06:33:01;;;;;;;;;;;;;;;18.17;60.80;100765.00;7399353;19;1745;-46
2023/02/22 06:35:29;;;;;;;;;;;;;;;18.24;61.65;100787.59;7398243;19;1795;-46
2023/02/22 06:38:01;;;;;;;;;;;;;;;18.20;61.40;100783.44;7399525;19;1811;-46
2023/02/22 06:40:30;;;;;;;;;;;;;;;18.25;61.34;100777.72;7404297;19;1639;-47
2023/02/22 06:42:58;;;;;;;;;;;;;;;18.32;61.61;100780.72;7406809;19;1544;-47
2023/02/22 06:45:27;;;;;;;;;;;;;;;18.37;61.70;100781.19;7405420;19;1869;-46
2023/02/22 06:47:55;;;;;;;;;;;;;;;18.39;61.76;100784.59;7404589;19;2222;-46
2023/02/22 06:50:25;;;;;;;;;;;;;;;18.43;61.26;100791.38;7406049;19;1866;-47
2023/02/22 06:52:54;;;;;;;;;;;;;;;18.47;61.63;100787.47;7406615;19;1791;-47
2023/02/22 06:55:26;;;;;;;;;;;;;;;19.32;59.13;100789.00;7405935;19;1879;-47
2023/02/22 06:57:54;;;;;;;;;;;;;;;20.16;57.15;100782.31;7406793;19;1851;-47
2023/02/22 07:00:26;;;;;;;;;;;;;;;19.96;57.45;100760.84;7406166;19;2163;-46
2023/02/22 07:02:55;;;;;;;;;;;;;;;19.57;58.54;100800.19;7406223;19;2143;-47
2023/02/22 07:05:24;;;;;;;;;;;;;;;19.22;59.79;100796.16;7404378;19;2252;-46
2023/02/22 07:07:55;;;;;;;;;;;;;;;18.92;60.28;100792.53;7404717;19;1838;-46
2023/02/22 07:10:27;;;;;;;;;;;;;;;18.92;60.84;100781.81;7404350;19;1490;-47
2023/02/22 07:12:56;;;;;;;;;;;;;;;18.87;61.09;100797.44;7402307;19;1730;-46
2023/02/22 07:15:27;;;;;;;;;;;;;;;18.79;61.05;100776.66;7404813;19;1882;-46
2023/02/22 07:17:55;;;;;;;;;;;;;;;18.77;61.08;100788.47;7406254;19;1825;-45
2023/02/22 07:20:24;;;;;;;;;;;;;;;18.74;61.07;100791.41;7405284;19;1497;-46
2023/02/22 07:22:55;;;;;;;;;;;;;;;18.65;61.45;100777.81;7405379;19;1735;-46
2023/02/22 07:25:26;;;;;;;;;;;;;;;18.68;61.45;100800.81;7404090;19;1953;-46
2023/02/22 07:27:55;;;;;;;;;;;;;;;18.68;61.65;100795.44;7405412;19;1854;-46
2023/02/22 07:30:28;;;;;;;;;;;;;;;18.66;61.33;100787.56;7404604;19;1870;-46
2023/02/22 07:32:57;;;;;;;;;;;;;;;18.66;61.39;100800.09;7404948;19;1784;-47
2023/02/22 07:35:26;;;;;;;;;;;;;;;18.57;61.94;100799.06;7401377;19;1914;-45
2023/02/22 07:37:55;;;;;;;;;;;;;;;18.54;61.91;100777.91;7405710;19;2020;-46
2023/02/22 07:40:27;;;;;;;;;;;;;;;18.56;61.94;100797.38;7404814;19;1857;-46
2023/02/22 07:42:58;;;;;;;;;;;;;;;18.51;62.26;100796.91;7405839;19;1790;-46
2023/02/22 07:45:27;;;;;;;;;;;;;;;18.53;62.06;100784.25;7402109;19;1890;-46
2023/02/22 07:47:55;;;;;;;;;;;;;;;18.19;62.12;100740.78;7404727;19;2037;-47
2023/02/22 07:50:25;;;;;;;;;;;;;;;18.59;62.02;100794.44;7402218;19;1751;-45
2023/02/22 07:52:55;;;;;;;;;;;;;;;18.52;62.12;100790.56;7405881;19;1791;-46
2023/02/22 07:55:24;;;;;;;;;;;;;;;18.52;62.46;100803.13;7404656;19;1974;-46
2023/02/22 07:57:57;;;;;;;;;;;;;;;18.45;62.34;100792.09;7404924;19;1906;-47
2023/02/22 08:00:27;;;;;;;;;;;;;;;18.42;62.52;100795.03;7404253;19;1870;-46
2023/02/22 08:02:57;;;;;;;;;;;;;;;18.77;61.58;100796.50;7404204;19;1837;-47
2023/02/22 08:05:27;;;;;;;;;;;;;;;19.40;59.91;100815.13;7404863;19;1906;-47
2023/02/22 08:07:55;;;;;;;;;;;;;;;20.16;57.89;100799.28;7405135;19;1122;-47
2023/02/22 08:10:24;;;;;;;;;;;;;;;20.00;58.40;100799.84;7402313;19;1878;-45
2023/02/22 08:12:56;;;;;;;;;;;;;;;19.41;59.37;100808.78;7402389;19;1920;-45
2023/02/22 08:15:27;;;;;;;;;;;;;;;19.06;60.18;100796.69;7403865;19;1802;-46
2023/02/22 08:17:56;;;;;;;;;;;;;;;18.90;60.53;100782.91;7403326;19;1909;-46
2023/02/22 08:20:26;;;;;;;;;;;;;;;18.78;61.21;100785.66;7403251;19;2178;-45
2023/02/22 08:22:54;;;;;;;;;;;;;;;18.68;61.18;100784.75;7403291;19;1750;-46
2023/02/22 08:25:24;;;;;;;;;;;;;;;18.65;61.44;100780.50;7403345;19;1851;-46
2023/02/22 08:28:00;;;;;;;;;;;;;;;18.64;61.58;100786.84;7403423;19;1533;-47
2023/02/22 08:30:29;;;;;;;;;;;;;;;18.56;62.00;100780.44;7402918;19;1430;-47
2023/02/22 08:32:59;;;;;;;;;;;;;;;18.55;61.53;100797.50;7404309;19;1554;-46
2023/02/22 08:35:27;;;;;;;;;;;;;;;18.54;62.10;100783.25;7402752;19;1952;-46
2023/02/22 08:37:59;;;;;;;;;;;;;;;18.59;61.97;100802.47;7402911;19;1861;-47
2023/02/22 08:40:30;;;;;;;;;;;;;;;18.59;61.69;100794.44;7400239;19;1568;-47
2023/02/22 08:43:03;;;;;;;;;;;;;;;18.59;61.66;100793.59;7402398;19;1757;-46
2023/02/22 08:45:32;;;;;;;;;;;;;;;18.56;61.81;100792.03;7402232;19;1852;-46
2023/02/22 08:48:02;;;;;;;;;;;;;;;18.54;61.67;100796.63;7403612;19;1898;-46
2023/02/22 08:50:32;;;;;;;;;;;;;;;18.63;61.90;100800.38;7402914;19;1874;-46
2023/02/22 08:53:02;;;;;;;;;;;;;;;18.60;61.66;100789.91;7403098;19;1237;-46
2023/02/22 08:55:34;;;;;;;;;;;;;;;18.60;61.93;100773.84;7401656;19;1506;-46
2023/02/22 08:58:08;;;;;;;;;;;;;;;18.56;62.26;100789.34;7403229;19;1750;-46
2023/02/22 09:00:37;;;;;;;;;;;;;;;18.55;62.57;100795.69;7402494;19;1414;-46
2023/02/22 09:03:07;;;;;;;;;;;;;;;18.55;62.73;100784.97;7399583;19;1499;-46
2023/02/22 09:05:35;;;;;;;;;;;;;;;18.65;62.25;100785.88;7400822;19;1863;-46
2023/02/22 09:08:03;;;;;;;;;;;;;;;18.58;62.27;100790.06;7401874;19;1717;-46
2023/02/22 09:10:34;;;;;;;;;;;;;;;18.52;62.30;100782.53;7400317;19;1801;-46
2023/02/22 09:13:06;;;;;;;;;;;;;;;18.47;61.96;100787.47;7399409;19;1883;-46
2023/02/22 09:15:38;;;;;;;;;;;;;;;18.48;61.73;100783.78;7402205;19;1667;-45
2023/02/22 09:18:08;;;;;;;;;;;;;;;18.44;61.61;100782.34;7403818;19;1785;-46
2023/02/22 09:20:37;;;;;;;;;;;;;;;18.40;61.02;100779.09;7402641;19;1864;-46
2023/02/22 09:23:08;;;;;;;;;;;;;;;18.34;59.56;100766.22;7401701;19;1911;-45
2023/02/22 09:25:37;;;;;;;;;;;;;;;18.35;60.16;100783.16;7403016;19;1893;-46
2023/02/22 09:28:08;;;;;;;;;;;;;;;18.35;59.54;100777.81;7403035;19;1938;-46
2023/02/22 09:30:38;;;;;;;;;;;;;;;18.29;59.66;100781.84;7402043;19;1949;-45
2023/02/22 09:33:08;;;;;;;;;;;;;;;18.37;59.32;100781.19;7403321;19;1782;-47
2023/02/22 09:35:37;;;;;;;;;;;;;;;18.34;58.32;100776.09;7399324;19;2015;-46
2023/02/22 09:38:06;;;;;;;;;;;;;;;18.34;57.32;100792.16;7399354;19;1086;-46
2023/02/22 09:40:39;;;;;;;;;;;;;;;18.31;57.21;100792.44;7402258;19;1804;-45
2023/02/22 09:43:18;;;;;;;;;;;;;;;18.24;56.72;100759.97;7402222;19;1047;-46
2023/02/22 09:45:56;;;;;;;;;;;;;;;18.26;56.61;100785.63;7400549;19;1843;-47
2023/02/22 09:48:24;;;;;;;;;;;;;;;18.24;56.75;100776.91;7401939;19;1702;-46
2023/02/22 09:50:55;;;;;;;;;;;;;;;18.22;56.53;100768.16;7398279;19;1855;-46
2023/02/22 09:53:28;;;;;;;;;;;;;;;18.25;55.30;100764.34;7400780;19;1906;-46
2023/02/22 09:56:00;;;;;;;;;;;;;;;18.27;55.69;100787.31;7400681;19;1735;-46
2023/02/22 09:58:37;;;;;;;;;;;;;;;18.29;53.61;100773.81;7397702;19;1042;-46
2023/02/22 10:01:16;;;;;;;;;;;;;;;18.31;54.37;100765.66;7401589;19;1010;-47
2023/02/22 10:03:49;;;;;;;;;;;;;;;18.25;55.29;100775.91;7401872;19;1902;-46
2023/02/22 10:06:21;;;;;;;;;;;;;;;18.29;56.11;100773.81;7397873;19;1943;-46
2023/02/22 10:08:52;;;;;;;;;;;;;;;18.30;53.34;100770.13;7401378;19;1363;-46
2023/02/22 10:11:30;;;;;;;;;;;;;;;18.28;54.97;100767.63;7396356;19;1985;-46
2023/02/22 10:14:09;;;;;;;;;;;;;;;18.24;55.24;100776.03;7395923;19;2003;-46
2023/02/22 10:16:42;;;;;;;;;;;;;;;18.24;55.78;100782.25;7400874;19;1846;-46
2023/02/22 10:19:21;;;;;;;;;;;;;;;18.23;55.52;100769.81;7398575;19;1035;-47
2023/02/22 10:21:56;;;;;;;;;;;;;;;18.25;55.76;100773.22;7399810;19;1525;-46
2023/02/22 10:24:37;;;;;;;;;;;;;;;18.31;54.22;100760.31;7398367;19;1026;-46
2023/02/22 10:27:06;;;;;;;;;;;;;;;18.25;52.00;100767.88;7396750;19;1857;-45
2023/02/22 10:29:40;;;;;;;;;;;;;;;18.21;52.97;100761.06;7399803;19;1180;-45
2023/02/22 10:32:13;;;;;;;;;;;;;;;18.29;51.60;100753.25;7398158;19;1220;-46
2023/02/22 10:34:47;;;;;;;;;;;;;;;18.20;53.65;100759.38;7400857;19;1993;-47
2023/02/22 10:37:25;;;;;;;;;;;;;;;18.21;53.96;100739.66;7398807;19;1850;-46
2023/02/22 10:39:58;;;;;;;;;;;;;;;18.19;53.37;100756.84;7397806;19;1651;-47
2023/02/22 10:42:28;;;;;;;;;;;;;;;18.24;53.34;100731.38;7395252;19;1717;-46
2023/02/22 10:45:00;;;;;;;;;;;;;;;18.21;54.00;100750.38;7400955;19;1768;-46
2023/02/22 10:47:28;;;;;;;;;;;;;;;18.20;51.95;100737.13;7397681;19;2281;-46
2023/02/22 10:49:59;;;;;;;;;;;;;;;18.24;51.64;100739.41;7397251;19;2421;-45
2023/02/22 10:52:29;;;;;;;;;;;;;;;18.20;53.75;100737.13;7397472;19;1957;-46
2023/02/22 10:54:59;;;;;;;;;;;;;;;18.18;51.53;100744.41;7401028;19;963;-46
2023/02/22 10:57:28;;;;;;;;;;;;;;;18.17;52.53;100722.16;7400606;19;1807;-46
2023/02/22 10:59:57;;;;;;;;;;;;;;;18.13;53.29;100715.38;7399395;19;1651;-46
2023/02/22 11:02:32;;;;;;;;;;;;;;;18.20;52.38;100729.91;7397518;19;1928;-46
2023/02/22 11:05:01;;;;;;;;;;;;;;;18.15;53.20;100724.13;7399611;19;2056;-46
2023/02/22 11:07:31;;;;;;;;;;;;;;;18.09;54.16;100720.16;7397964;19;1928;-45
2023/02/22 11:10:01;;;;;;;;;;;;;;;18.08;54.12;100715.78;7399394;19;1588;-46
2023/02/22 11:12:36;;;;;;;;;;;;;;;18.09;53.35;100713.94;7399382;19;1523;-47
2023/02/22 11:15:21;;;;;;;;;;;;;;;18.11;53.73;100712.00;7399770;19;1756;-46
2023/02/22 11:17:54;;;;;;;;;;;;;;;18.11;54.45;100705.81;7398718;19;1978;-46
2023/02/22 11:20:25;;;;;;;;;;;;;;;18.09;52.94;100720.16;7399906;19;1938;-46
2023/02/22 11:22:54;;;;;;;;;;;;;;;18.12;53.54;100721.72;7394029;19;2157;-41
2023/02/22 11:25:25;;;;;;;;;;;;;;;18.12;53.82;100705.66;7401820;19;2190;-40
2023/02/22 11:27:54;;;;;;;;;;;;;;;18.18;54.25;100697.09;7402405;19;2207;-40
2023/02/22 11:30:27;;;;;;;;;;;;;;;18.24;54.34;100696.59;7404858;19;1720;-43
2023/02/22 11:33:00;;;;;;;;;;;;;;;18.25;55.25;100700.94;7405114;19;1733;-43
2023/02/22 11:35:34;;;;;;;;;;;;;;;18.23;55.37;100716.28;7402780;19;1851;-43
2023/02/22 11:38:14;;;;;;;;;;;;;;;18.21;55.54;100702.19;7405505;19;1784;-43
2023/02/22 11:40:43;;;;;;;;;;;;;;;18.20;55.54;100695.13;7402762;19;1632;-43
2023/02/22 11:43:16;;;;;;;;;;;;;;;18.22;55.53;100701.22;7405085;19;2266;-43
2023/02/22 11:45:59;;;;;;;;;;;;;;;18.23;55.43;100710.94;7404937;19;2230;-43
2023/02/22 11:48:33;;;;;;;;;;;;;;;18.24;54.98;100701.06;7404187;19;1940;-43
2023/02/22 11:51:06;;;;;;;;;;;;;;;18.23;53.74;100713.63;7402511;19;1732;-43
2023/02/22 11:53:45;;;;;;;;;;;;;;;18.28;54.60;100707.84;7403923;19;1743;-43
2023/02/22 11:56:17;;;;;;;;;;;;;;;18.31;55.30;100704.09;7404308;19;1745;-42
2023/02/22 11:58:49;;;;;;;;;;;;;;;18.29;55.41;100705.06;7405363;19;1933;-43
2023/02/22 12:01:22;;;;;;;;;;;;;;;18.27;55.13;100690.94;7404155;19;1805;-43
2023/02/22 12:04:14;;;;;;;;;;;;;;;18.29;54.81;100705.06;7403197;19;1858;-43
2023/02/22 12:06:46;;;;;;;;;;;;;;;18.32;54.96;100705.78;7402795;19;1865;-43
2023/02/22 12:09:17;;;;;;;;;;;;;;;18.34;55.23;100703.81;7403366;19;2216;-43
2023/02/22 12:11:50;;;;;;;;;;;;;;;18.29;55.03;100691.66;7403756;19;1703;-43
2023/02/22 12:14:24;;;;;;;;;;;;;;;18.28;54.93;100703.38;7403039;19;1742;-43
2023/02/22 12:17:03;;;;;;;;;;;;;;;18.31;55.25;100696.91;7403523;19;1672;-43
2023/02/22 12:19:37;;;;;;;;;;;;;;;18.33;55.20;100702.13;7401375;19;2100;-43
2023/02/22 12:22:10;;;;;;;;;;;;;;;18.35;54.83;100708.19;7400457;19;1808;-43
2023/02/22 12:24:41;;;;;;;;;;;;;;;18.32;55.45;100693.22;7401390;19;1859;-43
2023/02/22 12:27:13;;;;;;;;;;;;;;;18.32;55.72;100695.06;7402329;19;1852;-43
2023/02/22 12:29:45;;;;;;;;;;;;;;;18.30;55.70;100697.88;7401806;19;2053;-43
2023/02/22 12:32:17;;;;;;;;;;;;;;;18.22;55.46;100687.84;7403374;19;1739;-43
2023/02/22 12:34:51;;;;;;;;;;;;;;;18.25;55.58;100679.53;7402488;19;2063;-43
2023/02/22 12:37:22;;;;;;;;;;;;;;;18.29;55.93;100690.81;7401452;19;1882;-42
2023/02/22 12:39:56;;;;;;;;;;;;;;;18.26;55.29;100677.69;7402748;19;2100;-43
2023/02/22 12:42:29;;;;;;;;;;;;;;;18.29;55.13;100682.78;7403241;19;1708;-43
2023/02/22 12:45:01;;;;;;;;;;;;;;;18.24;55.39;100685.00;7403504;19;2082;-43
2023/02/22 12:47:35;;;;;;;;;;;;;;;18.36;54.65;100678.59;7401067;19;2142;-43
2023/02/22 12:50:14;;;;;;;;;;;;;;;18.26;54.22;100686.59;7403312;19;2055;-43
2023/02/22 12:52:45;;;;;;;;;;;;;;;18.26;54.28;100686.59;7399152;19;2190;-43
2023/02/22 12:55:17;;;;;;;;;;;;;;;18.33;54.46;100689.59;7401015;19;2132;-43
2023/02/22 12:57:49;;;;;;;;;;;;;;;18.25;54.24;100684.03;7402396;19;2014;-43
2023/02/22 13:00:25;;;;;;;;;;;;;;;18.23;53.67;100677.97;7402160;19;2097;-43
2023/02/22 13:02:58;;;;;;;;;;;;;;;18.25;54.16;100679.53;7401985;19;1900;-43
2023/02/22 13:05:31;;;;;;;;;;;;;;;18.17;53.96;100690.06;7402491;19;1882;-43
2023/02/22 13:08:18;;;;;;;;;;;;;;;18.23;53.58;100684.16;7400862;19;1941;-43